PWSweather.com
Personal Weather Stations
Station Observations
2450ARBOR
Round Rock, TX 78681

Round Rock, TX 78681

Lat: 30.535239, Lon: -97.728137

Elevation: 800

Station Type:

Latest ConditionsUpdated 8:14:00 PM CDT Saturday, Jul 20, 2019
Currently Today's Max Today's Min Today's Average
Temperature 91.6°F33.1°C 99.7°F37.6°C 75.7°F24.3°C 86.9°F30.5°C
Dew Point 70.9°F21.6°C 76.3°F24.6°C 70.1°F21.2°C 74.1°F23.4°C
Winds 1.0 mph SSE1.6 kmh SSE 6.0 mph -9.7 kmh - - 1.5 mph 2.4 kmh
Wind Gusts 2.0 mph3.2 kmh 7.0 mph11.3 kmh - -
Humidity 51% 90% 44% 69%
Pressure 29.04 in983.4 mb 29.15 in987.1 mb 29.03 in983.1 mb -
Hour Temp Dew Point Humidity Winds Wind Gusts Pressure Precip Precip Rate Daily Precip Total
08:14 PM 91.6°F33.1°C 70.9°F21.6°C 51% 1.0 mph SSE1.6 kmh SSE 2.0 mph3.2 kmh 29.04 in983.4 mb 0.00 in0.0 mm 0.00 in0.0 mm 0.00 in0.0 mm
08:09 PM 91.8°F33.2°C 70.5°F21.4°C 50% 2.0 mph S3.2 kmh S 2.0 mph3.2 kmh 29.03 in983.1 mb 0.00 in0.0 mm 0.00 in0.0 mm 0.00 in0.0 mm
08:04 PM 92.1°F33.4°C 70.7°F21.5°C 50% 4.0 mph ENE6.4 kmh ENE 4.0 mph6.4 kmh 29.04 in983.4 mb 0.00 in0.0 mm 0.00 in0.0 mm 0.00 in0.0 mm
07:59 PM 92.3°F33.5°C 70.9°F21.6°C 50% Calm Calm 4.0 mph6.4 kmh 29.04 in983.4 mb 0.00 in0.0 mm 0.00 in0.0 mm 0.00 in0.0 mm
07:54 PM 92.5°F33.6°C 71.1°F21.7°C 50% 4.0 mph S6.4 kmh S 4.0 mph6.4 kmh 29.03 in983.1 mb 0.00 in0.0 mm 0.00 in0.0 mm 0.00 in0.0 mm
07:49 PM 92.8°F33.8°C 70.8°F21.6°C 49% 2.0 mph S3.2 kmh S 2.0 mph3.2 kmh 29.03 in983.1 mb 0.00 in0.0 mm 0.00 in0.0 mm 0.00 in0.0 mm
07:44 PM 93.2°F34.0°C 70.5°F21.4°C 48% Calm Calm 4.0 mph6.4 kmh 29.04 in983.4 mb 0.00 in0.0 mm 0.00 in0.0 mm 0.00 in0.0 mm
07:39 PM 93.7°F34.3°C 71.0°F21.7°C 48% 2.0 mph SE3.2 kmh SE 4.0 mph6.4 kmh 29.03 in983.1 mb 0.00 in0.0 mm 0.00 in0.0 mm 0.00 in0.0 mm
07:35 PM 93.9°F34.4°C 70.6°F21.4°C 47% 3.0 mph SSE4.8 kmh SSE 3.0 mph4.8 kmh 29.03 in983.1 mb 0.00 in0.0 mm 0.00 in0.0 mm 0.00 in0.0 mm
07:29 PM 94.1°F34.5°C 70.1°F21.2°C 46% 1.0 mph SSW1.6 kmh SSW 4.0 mph6.4 kmh 29.04 in983.4 mb 0.00 in0.0 mm 0.00 in0.0 mm 0.00 in0.0 mm
07:24 PM 94.6°F34.8°C 70.6°F21.4°C 46% 2.0 mph S3.2 kmh S 4.0 mph6.4 kmh 29.03 in983.1 mb 0.00 in0.0 mm 0.00 in0.0 mm 0.00 in0.0 mm
07:19 PM 95.2°F35.1°C 71.1°F21.7°C 46% Calm Calm 4.0 mph6.4 kmh 29.03 in983.1 mb 0.00 in0.0 mm 0.00 in0.0 mm 0.00 in0.0 mm
07:14 PM 95.5°F35.3°C 71.4°F21.9°C 46% Calm Calm 1.0 mph1.6 kmh 29.03 in983.1 mb 0.00 in0.0 mm 0.00 in0.0 mm 0.00 in0.0 mm
07:09 PM 96.3°F35.7°C 72.1°F22.3°C 46% 1.0 mph S1.6 kmh S 3.0 mph4.8 kmh 29.03 in983.1 mb 0.00 in0.0 mm 0.00 in0.0 mm 0.00 in0.0 mm
07:04 PM 97.9°F36.6°C 72.9°F22.7°C 45% 6.0 mph E9.7 kmh E 6.0 mph9.7 kmh 29.03 in983.1 mb 0.00 in0.0 mm 0.00 in0.0 mm 0.00 in0.0 mm
06:59 PM 97.7°F36.5°C 72.7°F22.6°C 45% 2.0 mph ESE3.2 kmh ESE 3.0 mph4.8 kmh 29.03 in983.1 mb 0.00 in0.0 mm 0.00 in0.0 mm 0.00 in0.0 mm
06:54 PM 97.9°F36.6°C 72.9°F22.7°C 45% 3.0 mph S4.8 kmh S 4.0 mph6.4 kmh 29.03 in983.1 mb 0.00 in0.0 mm 0.00 in0.0 mm 0.00 in0.0 mm
06:49 PM 98.8°F37.1°C 73.7°F23.2°C 45% 1.0 mph SSW1.6 kmh SSW 2.0 mph3.2 kmh 29.03 in983.1 mb 0.00 in0.0 mm 0.00 in0.0 mm 0.00 in0.0 mm
06:44 PM 98.1°F36.7°C 72.4°F22.4°C 44% 2.0 mph SE3.2 kmh SE 4.0 mph6.4 kmh 29.03 in983.1 mb 0.00 in0.0 mm 0.00 in0.0 mm 0.00 in0.0 mm
06:39 PM 98.6°F37.0°C 72.9°F22.7°C 44% Calm Calm 2.0 mph3.2 kmh 29.03 in983.1 mb 0.00 in0.0 mm 0.00 in0.0 mm 0.00 in0.0 mm
06:34 PM 98.6°F37.0°C 72.9°F22.7°C 44% 2.0 mph S3.2 kmh S 3.0 mph4.8 kmh 29.03 in983.1 mb 0.00 in0.0 mm 0.00 in0.0 mm 0.00 in0.0 mm
06:29 PM 98.4°F36.9°C 72.7°F22.6°C 44% 2.0 mph SSE3.2 kmh SSE 4.0 mph6.4 kmh 29.03 in983.1 mb 0.00 in0.0 mm 0.00 in0.0 mm 0.00 in0.0 mm
06:24 PM 98.8°F37.1°C 73.0°F22.8°C 44% 3.0 mph SE4.8 kmh SE 5.0 mph8.0 kmh 29.03 in983.1 mb 0.00 in0.0 mm 0.00 in0.0 mm 0.00 in0.0 mm
06:19 PM 98.2°F36.8°C 72.5°F22.5°C 44% Calm Calm 3.0 mph4.8 kmh 29.03 in983.1 mb 0.00 in0.0 mm 0.00 in0.0 mm 0.00 in0.0 mm
06:14 PM 97.9°F36.6°C 72.2°F22.3°C 44% 3.0 mph S4.8 kmh S 4.0 mph6.4 kmh 29.03 in983.1 mb 0.00 in0.0 mm 0.00 in0.0 mm 0.00 in0.0 mm
06:09 PM 97.3°F36.3°C 72.3°F22.4°C 45% 3.0 mph SSW4.8 kmh SSW 4.0 mph6.4 kmh 29.04 in983.4 mb 0.00 in0.0 mm 0.00 in0.0 mm 0.00 in0.0 mm
06:04 PM 98.2°F36.8°C 73.8°F23.2°C 46% Calm Calm 2.0 mph3.2 kmh 29.04 in983.4 mb 0.00 in0.0 mm 0.00 in0.0 mm 0.00 in0.0 mm
05:59 PM 97.3°F36.3°C 73.0°F22.8°C 46% Calm Calm -- 29.04 in983.4 mb 0.00 in0.0 mm 0.00 in0.0 mm 0.00 in0.0 mm
05:54 PM 98.2°F36.8°C 73.2°F22.9°C 45% 3.0 mph SSE4.8 kmh SSE 3.0 mph4.8 kmh 29.04 in983.4 mb 0.00 in0.0 mm 0.00 in0.0 mm 0.00 in0.0 mm
05:49 PM 98.2°F36.8°C 73.2°F22.9°C 45% Calm Calm 1.0 mph1.6 kmh 29.04 in983.4 mb 0.00 in0.0 mm 0.00 in0.0 mm 0.00 in0.0 mm
05:44 PM 97.7°F36.5°C 72.7°F22.6°C 45% 2.0 mph SSE3.2 kmh SSE 3.0 mph4.8 kmh 29.04 in983.4 mb 0.00 in0.0 mm 0.00 in0.0 mm 0.00 in0.0 mm
05:39 PM 98.2°F36.8°C 73.2°F22.9°C 45% 3.0 mph SSE4.8 kmh SSE 6.0 mph9.7 kmh 29.04 in983.4 mb 0.00 in0.0 mm 0.00 in0.0 mm 0.00 in0.0 mm
05:34 PM 98.1°F36.7°C 73.1°F22.8°C 45% 2.0 mph NE3.2 kmh NE 4.0 mph6.4 kmh 29.04 in983.4 mb 0.00 in0.0 mm 0.00 in0.0 mm 0.00 in0.0 mm
05:29 PM 98.4°F36.9°C 73.3°F22.9°C 45% 2.0 mph ESE3.2 kmh ESE 4.0 mph6.4 kmh 29.04 in983.4 mb 0.00 in0.0 mm 0.00 in0.0 mm 0.00 in0.0 mm
05:24 PM 98.4°F36.9°C 74.0°F23.3°C 46% 1.0 mph S1.6 kmh S 2.0 mph3.2 kmh 29.04 in983.4 mb 0.00 in0.0 mm 0.00 in0.0 mm 0.00 in0.0 mm
05:19 PM 98.4°F36.9°C 73.3°F22.9°C 45% Calm Calm 3.0 mph4.8 kmh 29.05 in983.7 mb 0.00 in0.0 mm 0.00 in0.0 mm 0.00 in0.0 mm
05:14 PM 98.2°F36.8°C 73.2°F22.9°C 45% 2.0 mph SSE3.2 kmh SSE 4.0 mph6.4 kmh 29.04 in983.4 mb 0.00 in0.0 mm 0.00 in0.0 mm 0.00 in0.0 mm
05:09 PM 99.0°F37.2°C 73.2°F22.9°C 44% 2.0 mph NW3.2 kmh NW 6.0 mph9.7 kmh 29.05 in983.7 mb 0.00 in0.0 mm 0.00 in0.0 mm 0.00 in0.0 mm
05:04 PM 98.4°F36.9°C 73.3°F22.9°C 45% 2.0 mph E3.2 kmh E 2.0 mph3.2 kmh 29.05 in983.7 mb 0.00 in0.0 mm 0.00 in0.0 mm 0.00 in0.0 mm
04:59 PM 99.0°F37.2°C 73.2°F22.9°C 44% 1.0 mph S1.6 kmh S 7.0 mph11.3 kmh 29.05 in983.7 mb 0.00 in0.0 mm 0.00 in0.0 mm 0.00 in0.0 mm
04:54 PM 98.1°F36.7°C 73.1°F22.8°C 45% 6.0 mph SSE9.7 kmh SSE 6.0 mph9.7 kmh 29.05 in983.7 mb 0.00 in0.0 mm 0.00 in0.0 mm 0.00 in0.0 mm
04:49 PM 98.6°F37.0°C 73.5°F23.1°C 45% 3.0 mph SSE4.8 kmh SSE 6.0 mph9.7 kmh 29.05 in983.7 mb 0.00 in0.0 mm 0.00 in0.0 mm 0.00 in0.0 mm
04:44 PM 98.6°F37.0°C 73.5°F23.1°C 45% 2.0 mph SSE3.2 kmh SSE 3.0 mph4.8 kmh 29.05 in983.7 mb 0.00 in0.0 mm 0.00 in0.0 mm 0.00 in0.0 mm
04:39 PM 98.4°F36.9°C 73.3°F22.9°C 45% 3.0 mph S4.8 kmh S 5.0 mph8.0 kmh 29.06 in984.1 mb 0.00 in0.0 mm 0.00 in0.0 mm 0.00 in0.0 mm
04:34 PM 99.3°F37.4°C 74.2°F23.4°C 45% 2.0 mph ENE3.2 kmh ENE 7.0 mph11.3 kmh 29.06 in984.1 mb 0.00 in0.0 mm 0.00 in0.0 mm 0.00 in0.0 mm
04:29 PM 99.7°F37.6°C 74.5°F23.6°C 45% 3.0 mph SE4.8 kmh SE 4.0 mph6.4 kmh 29.06 in984.1 mb 0.00 in0.0 mm 0.00 in0.0 mm 0.00 in0.0 mm
04:24 PM 99.0°F37.2°C 74.5°F23.6°C 46% Calm Calm 3.0 mph4.8 kmh 29.06 in984.1 mb 0.00 in0.0 mm 0.00 in0.0 mm 0.00 in0.0 mm
04:20 PM 99.0°F37.2°C 74.5°F23.6°C 46% 4.0 mph ESE6.4 kmh ESE 4.0 mph6.4 kmh 29.06 in984.1 mb 0.00 in0.0 mm 0.00 in0.0 mm 0.00 in0.0 mm
04:14 PM 98.4°F36.9°C 74.0°F23.3°C 46% 3.0 mph SSW4.8 kmh SSW 5.0 mph8.0 kmh 29.06 in984.1 mb 0.00 in0.0 mm 0.00 in0.0 mm 0.00 in0.0 mm
04:09 PM 97.5°F36.4°C 73.2°F22.9°C 46% 3.0 mph S4.8 kmh S 4.0 mph6.4 kmh 29.06 in984.1 mb 0.00 in0.0 mm 0.00 in0.0 mm 0.00 in0.0 mm
04:04 PM 98.2°F36.8°C 74.5°F23.6°C 47% 1.0 mph S1.6 kmh S 4.0 mph6.4 kmh 29.07 in984.4 mb 0.00 in0.0 mm 0.00 in0.0 mm 0.00 in0.0 mm
03:59 PM 98.2°F36.8°C 74.5°F23.6°C 47% 1.0 mph S1.6 kmh S 3.0 mph4.8 kmh 29.07 in984.4 mb 0.00 in0.0 mm 0.00 in0.0 mm 0.00 in0.0 mm
03:54 PM 98.2°F36.8°C 73.8°F23.2°C 46% 3.0 mph S4.8 kmh S 3.0 mph4.8 kmh 29.07 in984.4 mb 0.00 in0.0 mm 0.00 in0.0 mm 0.00 in0.0 mm
03:49 PM 98.2°F36.8°C 74.5°F23.6°C 47% Calm Calm 3.0 mph4.8 kmh 29.07 in984.4 mb 0.00 in0.0 mm 0.00 in0.0 mm 0.00 in0.0 mm
03:44 PM 98.6°F37.0°C 74.2°F23.4°C 46% 4.0 mph SE6.4 kmh SE 4.0 mph6.4 kmh 29.07 in984.4 mb 0.00 in0.0 mm 0.00 in0.0 mm 0.00 in0.0 mm
03:39 PM 98.2°F36.8°C 74.5°F23.6°C 47% 1.0 mph S1.6 kmh S 5.0 mph8.0 kmh 29.07 in984.4 mb 0.00 in0.0 mm 0.00 in0.0 mm 0.00 in0.0 mm
03:34 PM 98.4°F36.9°C 74.0°F23.3°C 46% 4.0 mph S6.4 kmh S 5.0 mph8.0 kmh 29.07 in984.4 mb 0.00 in0.0 mm 0.00 in0.0 mm 0.00 in0.0 mm
03:29 PM 99.0°F37.2°C 74.5°F23.6°C 46% 1.0 mph SSE1.6 kmh SSE 6.0 mph9.7 kmh 29.07 in984.4 mb 0.00 in0.0 mm 0.00 in0.0 mm 0.00 in0.0 mm
03:24 PM 98.2°F36.8°C 75.1°F23.9°C 48% 1.0 mph W1.6 kmh W 4.0 mph6.4 kmh 29.08 in984.8 mb 0.00 in0.0 mm 0.00 in0.0 mm 0.00 in0.0 mm
03:19 PM 97.5°F36.4°C 73.8°F23.2°C 47% 3.0 mph SSE4.8 kmh SSE 3.0 mph4.8 kmh 29.08 in984.8 mb 0.00 in0.0 mm 0.00 in0.0 mm 0.00 in0.0 mm
03:14 PM 97.7°F36.5°C 74.6°F23.7°C 48% 3.0 mph S4.8 kmh S 4.0 mph6.4 kmh 29.08 in984.8 mb 0.00 in0.0 mm 0.00 in0.0 mm 0.00 in0.0 mm
03:09 PM 97.9°F36.6°C 74.8°F23.8°C 48% 4.0 mph S6.4 kmh S 4.0 mph6.4 kmh 29.08 in984.8 mb 0.00 in0.0 mm 0.00 in0.0 mm 0.00 in0.0 mm
03:04 PM 97.5°F36.4°C 75.1°F23.9°C 49% 2.0 mph S3.2 kmh S 3.0 mph4.8 kmh 29.08 in984.8 mb 0.00 in0.0 mm 0.00 in0.0 mm 0.00 in0.0 mm
02:59 PM 97.2°F36.2°C 74.2°F23.4°C 48% 3.0 mph S4.8 kmh S 5.0 mph8.0 kmh 29.08 in984.8 mb 0.00 in0.0 mm 0.00 in0.0 mm 0.00 in0.0 mm
02:54 PM 98.2°F36.8°C 75.1°F23.9°C 48% 3.0 mph SSW4.8 kmh SSW 5.0 mph8.0 kmh 29.08 in984.8 mb 0.00 in0.0 mm 0.00 in0.0 mm 0.00 in0.0 mm
02:49 PM 98.1°F36.7°C 75.6°F24.2°C 49% 2.0 mph SSW3.2 kmh SSW 3.0 mph4.8 kmh 29.09 in985.1 mb 0.00 in0.0 mm 0.00 in0.0 mm 0.00 in0.0 mm
02:44 PM 97.2°F36.2°C 75.4°F24.1°C 50% 2.0 mph S3.2 kmh S 3.0 mph4.8 kmh 29.09 in985.1 mb 0.00 in0.0 mm 0.00 in0.0 mm 0.00 in0.0 mm
02:39 PM 96.6°F35.9°C 74.9°F23.8°C 50% 3.0 mph S4.8 kmh S 3.0 mph4.8 kmh 29.09 in985.1 mb 0.00 in0.0 mm 0.00 in0.0 mm 0.00 in0.0 mm
02:34 PM 95.7°F35.4°C 75.2°F24.0°C 52% 1.0 mph S1.6 kmh S 2.0 mph3.2 kmh 29.09 in985.1 mb 0.00 in0.0 mm 0.00 in0.0 mm 0.00 in0.0 mm
02:29 PM 96.3°F35.7°C 74.6°F23.7°C 50% 1.0 mph S1.6 kmh S 4.0 mph6.4 kmh 29.10 in985.4 mb 0.00 in0.0 mm 0.00 in0.0 mm 0.00 in0.0 mm
02:24 PM 96.6°F35.9°C 74.9°F23.8°C 50% 2.0 mph S3.2 kmh S 4.0 mph6.4 kmh 29.10 in985.4 mb 0.00 in0.0 mm 0.00 in0.0 mm 0.00 in0.0 mm
02:19 PM 95.4°F35.2°C 74.4°F23.6°C 51% 1.0 mph ESE1.6 kmh ESE 5.0 mph8.0 kmh 29.10 in985.4 mb 0.00 in0.0 mm 0.00 in0.0 mm 0.00 in0.0 mm
02:14 PM 95.2°F35.1°C 74.7°F23.7°C 52% 1.0 mph SSE1.6 kmh SSE 3.0 mph4.8 kmh 29.10 in985.4 mb 0.00 in0.0 mm 0.00 in0.0 mm 0.00 in0.0 mm
02:09 PM 96.6°F35.9°C 75.4°F24.1°C 51% 2.0 mph SSE3.2 kmh SSE 4.0 mph6.4 kmh 29.10 in985.4 mb 0.00 in0.0 mm 0.00 in0.0 mm 0.00 in0.0 mm
02:04 PM 96.3°F35.7°C 75.8°F24.3°C 52% Calm Calm 2.0 mph3.2 kmh 29.10 in985.4 mb 0.00 in0.0 mm 0.00 in0.0 mm 0.00 in0.0 mm
01:59 PM 95.7°F35.4°C 75.2°F24.0°C 52% 1.0 mph S1.6 kmh S 3.0 mph4.8 kmh 29.11 in985.8 mb 0.00 in0.0 mm 0.00 in0.0 mm 0.00 in0.0 mm
01:54 PM 95.5°F35.3°C 75.0°F23.9°C 52% 2.0 mph E3.2 kmh E 4.0 mph6.4 kmh 29.11 in985.8 mb 0.00 in0.0 mm 0.00 in0.0 mm 0.00 in0.0 mm
01:49 PM 95.5°F35.3°C 75.0°F23.9°C 52% Calm Calm 2.0 mph3.2 kmh 29.11 in985.8 mb 0.00 in0.0 mm 0.00 in0.0 mm 0.00 in0.0 mm
01:44 PM 95.4°F35.2°C 75.5°F24.2°C 53% 2.0 mph SSE3.2 kmh SSE 2.0 mph3.2 kmh 29.11 in985.8 mb 0.00 in0.0 mm 0.00 in0.0 mm 0.00 in0.0 mm
01:39 PM 95.4°F35.2°C 74.9°F23.8°C 52% 2.0 mph S3.2 kmh S 4.0 mph6.4 kmh 29.11 in985.8 mb 0.00 in0.0 mm 0.00 in0.0 mm 0.00 in0.0 mm
01:34 PM 94.5°F34.7°C 75.2°F24.0°C 54% 2.0 mph S3.2 kmh S 3.0 mph4.8 kmh 29.11 in985.8 mb 0.00 in0.0 mm 0.00 in0.0 mm 0.00 in0.0 mm
01:29 PM 94.3°F34.6°C 75.6°F24.2°C 55% 1.0 mph S1.6 kmh S 3.0 mph4.8 kmh 29.11 in985.8 mb 0.00 in0.0 mm 0.00 in0.0 mm 0.00 in0.0 mm
01:24 PM 94.6°F34.8°C 75.9°F24.4°C 55% Calm Calm 2.0 mph3.2 kmh 29.12 in986.1 mb 0.00 in0.0 mm 0.00 in0.0 mm 0.00 in0.0 mm
01:19 PM 93.4°F34.1°C 75.3°F24.1°C 56% 1.0 mph SSW1.6 kmh SSW 3.0 mph4.8 kmh 29.12 in986.1 mb 0.00 in0.0 mm 0.00 in0.0 mm 0.00 in0.0 mm
01:14 PM 93.4°F34.1°C 75.3°F24.1°C 56% 3.0 mph SSE4.8 kmh SSE 4.0 mph6.4 kmh 29.12 in986.1 mb 0.00 in0.0 mm 0.00 in0.0 mm 0.00 in0.0 mm
01:09 PM 93.0°F33.9°C 74.9°F23.8°C 56% 1.0 mph SSE1.6 kmh SSE 4.0 mph6.4 kmh 29.13 in986.5 mb 0.00 in0.0 mm 0.00 in0.0 mm 0.00 in0.0 mm
01:04 PM 92.7°F33.7°C 75.2°F24.0°C 57% 3.0 mph SSE4.8 kmh SSE 3.0 mph4.8 kmh 29.13 in986.5 mb 0.00 in0.0 mm 0.00 in0.0 mm 0.00 in0.0 mm
12:59 PM 93.4°F34.1°C 75.8°F24.3°C 57% Calm Calm 2.0 mph3.2 kmh 29.13 in986.5 mb 0.00 in0.0 mm 0.00 in0.0 mm 0.00 in0.0 mm
12:54 PM 92.5°F33.6°C 75.5°F24.2°C 58% 1.0 mph SSE1.6 kmh SSE 4.0 mph6.4 kmh 29.13 in986.5 mb 0.00 in0.0 mm 0.00 in0.0 mm 0.00 in0.0 mm
12:49 PM 92.3°F33.5°C 74.8°F23.8°C 57% 2.0 mph S3.2 kmh S 4.0 mph6.4 kmh 29.13 in986.5 mb 0.00 in0.0 mm 0.00 in0.0 mm 0.00 in0.0 mm
12:44 PM 93.0°F33.9°C 75.5°F24.2°C 57% 1.0 mph SSE1.6 kmh SSE 4.0 mph6.4 kmh 29.13 in986.5 mb 0.00 in0.0 mm 0.00 in0.0 mm 0.00 in0.0 mm
12:39 PM 91.6°F33.1°C 75.2°F24.0°C 59% 2.0 mph SSW3.2 kmh SSW 3.0 mph4.8 kmh 29.14 in986.8 mb 0.00 in0.0 mm 0.00 in0.0 mm 0.00 in0.0 mm
12:34 PM 91.9°F33.3°C 75.5°F24.2°C 59% 2.0 mph SSE3.2 kmh SSE 4.0 mph6.4 kmh 29.14 in986.8 mb 0.00 in0.0 mm 0.00 in0.0 mm 0.00 in0.0 mm
12:29 PM 92.1°F33.4°C 75.7°F24.3°C 59% 2.0 mph SSW3.2 kmh SSW 3.0 mph4.8 kmh 29.14 in986.8 mb 0.00 in0.0 mm 0.00 in0.0 mm 0.00 in0.0 mm
12:24 PM 92.3°F33.5°C 75.9°F24.4°C 59% 3.0 mph SSE4.8 kmh SSE 4.0 mph6.4 kmh 29.14 in986.8 mb 0.00 in0.0 mm 0.00 in0.0 mm 0.00 in0.0 mm
12:19 PM 91.9°F33.3°C 75.5°F24.2°C 59% Calm Calm 3.0 mph4.8 kmh 29.14 in986.8 mb 0.00 in0.0 mm 0.00 in0.0 mm 0.00 in0.0 mm
12:14 PM 91.4°F33.0°C 76.0°F24.4°C 61% Calm Calm 3.0 mph4.8 kmh 29.14 in986.8 mb 0.00 in0.0 mm 0.00 in0.0 mm 0.00 in0.0 mm
12:09 PM 91.2°F32.9°C 75.8°F24.3°C 61% 3.0 mph S4.8 kmh S 4.0 mph6.4 kmh 29.14 in986.8 mb 0.00 in0.0 mm 0.00 in0.0 mm 0.00 in0.0 mm
12:04 PM 90.3°F32.4°C 76.0°F24.4°C 63% Calm Calm 2.0 mph3.2 kmh 29.14 in986.8 mb 0.00 in0.0 mm 0.00 in0.0 mm 0.00 in0.0 mm
11:59 AM 91.0°F32.8°C 75.6°F24.2°C 61% 2.0 mph SSE3.2 kmh SSE 5.0 mph8.0 kmh 29.14 in986.8 mb 0.00 in0.0 mm 0.00 in0.0 mm 0.00 in0.0 mm
11:54 AM 90.3°F32.4°C 75.0°F23.9°C 61% 3.0 mph S4.8 kmh S 6.0 mph9.7 kmh 29.14 in986.8 mb 0.00 in0.0 mm 0.00 in0.0 mm 0.00 in0.0 mm
11:49 AM 91.0°F32.8°C 76.1°F24.5°C 62% 1.0 mph S1.6 kmh S 4.0 mph6.4 kmh 29.14 in986.8 mb 0.00 in0.0 mm 0.00 in0.0 mm 0.00 in0.0 mm
11:44 AM 90.3°F32.4°C 76.0°F24.4°C 63% 2.0 mph S3.2 kmh S 5.0 mph8.0 kmh 29.14 in986.8 mb 0.00 in0.0 mm 0.00 in0.0 mm 0.00 in0.0 mm
11:39 AM 90.0°F32.2°C 75.7°F24.3°C 63% 2.0 mph ESE3.2 kmh ESE 4.0 mph6.4 kmh 29.14 in986.8 mb 0.00 in0.0 mm 0.00 in0.0 mm 0.00 in0.0 mm
11:34 AM 89.4°F31.9°C 75.6°F24.2°C 64% 4.0 mph SE6.4 kmh SE 4.0 mph6.4 kmh 29.14 in986.8 mb 0.00 in0.0 mm 0.00 in0.0 mm 0.00 in0.0 mm
11:29 AM 88.7°F31.5°C 75.4°F24.1°C 65% 2.0 mph S3.2 kmh S 4.0 mph6.4 kmh 29.14 in986.8 mb 0.00 in0.0 mm 0.00 in0.0 mm 0.00 in0.0 mm
11:24 AM 89.2°F31.8°C 76.3°F24.6°C 66% 3.0 mph SSE4.8 kmh SSE 3.0 mph4.8 kmh 29.14 in986.8 mb 0.00 in0.0 mm 0.00 in0.0 mm 0.00 in0.0 mm
11:19 AM 88.5°F31.4°C 75.7°F24.3°C 66% 2.0 mph ESE3.2 kmh ESE 3.0 mph4.8 kmh 29.14 in986.8 mb 0.00 in0.0 mm 0.00 in0.0 mm 0.00 in0.0 mm
11:14 AM 88.3°F31.3°C 75.5°F24.2°C 66% 2.0 mph SSE3.2 kmh SSE 5.0 mph8.0 kmh 29.14 in986.8 mb 0.00 in0.0 mm 0.00 in0.0 mm 0.00 in0.0 mm
11:09 AM 88.0°F31.1°C 75.2°F24.0°C 66% 1.0 mph SSW1.6 kmh SSW 3.0 mph4.8 kmh 29.13 in986.5 mb 0.00 in0.0 mm 0.00 in0.0 mm 0.00 in0.0 mm
11:04 AM 88.5°F31.4°C 76.1°F24.5°C 67% 3.0 mph S4.8 kmh S 3.0 mph4.8 kmh 29.14 in986.8 mb 0.00 in0.0 mm 0.00 in0.0 mm 0.00 in0.0 mm
10:59 AM 88.2°F31.2°C 75.8°F24.3°C 67% 6.0 mph S9.7 kmh S 6.0 mph9.7 kmh 29.14 in986.8 mb 0.00 in0.0 mm 0.00 in0.0 mm 0.00 in0.0 mm
10:54 AM 87.8°F31.0°C 75.9°F24.4°C 68% 1.0 mph S1.6 kmh S 7.0 mph11.3 kmh 29.14 in986.8 mb 0.00 in0.0 mm 0.00 in0.0 mm 0.00 in0.0 mm
10:49 AM 87.3°F30.7°C 75.9°F24.4°C 69% 2.0 mph NE3.2 kmh NE 3.0 mph4.8 kmh 29.14 in986.8 mb 0.00 in0.0 mm 0.00 in0.0 mm 0.00 in0.0 mm
10:44 AM 86.2°F30.1°C 75.2°F24.0°C 70% 5.0 mph S8.0 kmh S 5.0 mph8.0 kmh 29.14 in986.8 mb 0.00 in0.0 mm 0.00 in0.0 mm 0.00 in0.0 mm
10:39 AM 85.3°F29.6°C 74.8°F23.8°C 71% 2.0 mph SSE3.2 kmh SSE 4.0 mph6.4 kmh 29.14 in986.8 mb 0.00 in0.0 mm 0.00 in0.0 mm 0.00 in0.0 mm
10:34 AM 84.7°F29.3°C 74.2°F23.4°C 71% 2.0 mph SSE3.2 kmh SSE 2.0 mph3.2 kmh 29.14 in986.8 mb 0.00 in0.0 mm 0.00 in0.0 mm 0.00 in0.0 mm
10:29 AM 84.7°F29.3°C 74.6°F23.7°C 72% 1.0 mph S1.6 kmh S 4.0 mph6.4 kmh 29.15 in987.1 mb 0.00 in0.0 mm 0.00 in0.0 mm 0.00 in0.0 mm
10:24 AM 85.1°F29.5°C 75.0°F23.9°C 72% 1.0 mph SSE1.6 kmh SSE 3.0 mph4.8 kmh 29.14 in986.8 mb 0.00 in0.0 mm 0.00 in0.0 mm 0.00 in0.0 mm
10:19 AM 84.6°F29.2°C 75.0°F23.9°C 73% 2.0 mph SSW3.2 kmh SSW 4.0 mph6.4 kmh 29.14 in986.8 mb 0.00 in0.0 mm 0.00 in0.0 mm 0.00 in0.0 mm
10:14 AM 84.4°F29.1°C 74.8°F23.8°C 73% 2.0 mph SE3.2 kmh SE 3.0 mph4.8 kmh 29.14 in986.8 mb 0.00 in0.0 mm 0.00 in0.0 mm 0.00 in0.0 mm
10:09 AM 84.4°F29.1°C 75.2°F24.0°C 74% Calm Calm 3.0 mph4.8 kmh 29.14 in986.8 mb 0.00 in0.0 mm 0.00 in0.0 mm 0.00 in0.0 mm
10:04 AM 83.8°F28.8°C 75.0°F23.9°C 75% 2.0 mph WSW3.2 kmh WSW 4.0 mph6.4 kmh 29.14 in986.8 mb 0.00 in0.0 mm 0.00 in0.0 mm 0.00 in0.0 mm
09:59 AM 83.7°F28.7°C 74.9°F23.8°C 75% 2.0 mph S3.2 kmh S 4.0 mph6.4 kmh 29.14 in986.8 mb 0.00 in0.0 mm 0.00 in0.0 mm 0.00 in0.0 mm
09:54 AM 83.5°F28.6°C 74.7°F23.7°C 75% 2.0 mph SE3.2 kmh SE 2.0 mph3.2 kmh 29.14 in986.8 mb 0.00 in0.0 mm 0.00 in0.0 mm 0.00 in0.0 mm
09:49 AM 83.7°F28.7°C 74.5°F23.6°C 74% 2.0 mph ESE3.2 kmh ESE 4.0 mph6.4 kmh 29.14 in986.8 mb 0.00 in0.0 mm 0.00 in0.0 mm 0.00 in0.0 mm
09:44 AM 83.7°F28.7°C 74.9°F23.8°C 75% 1.0 mph S1.6 kmh S 3.0 mph4.8 kmh 29.14 in986.8 mb 0.00 in0.0 mm 0.00 in0.0 mm 0.00 in0.0 mm
09:39 AM 83.7°F28.7°C 75.3°F24.1°C 76% 3.0 mph S4.8 kmh S 3.0 mph4.8 kmh 29.14 in986.8 mb 0.00 in0.0 mm 0.00 in0.0 mm 0.00 in0.0 mm
09:34 AM 83.3°F28.5°C 74.5°F23.6°C 75% 2.0 mph SSW3.2 kmh SSW 4.0 mph6.4 kmh 29.14 in986.8 mb 0.00 in0.0 mm 0.00 in0.0 mm 0.00 in0.0 mm
09:29 AM 83.7°F28.7°C 74.9°F23.8°C 75% 2.0 mph SSW3.2 kmh SSW 6.0 mph9.7 kmh 29.14 in986.8 mb 0.00 in0.0 mm 0.00 in0.0 mm 0.00 in0.0 mm
09:24 AM 83.8°F28.8°C 75.4°F24.1°C 76% 2.0 mph SSE3.2 kmh SSE 3.0 mph4.8 kmh 29.14 in986.8 mb 0.00 in0.0 mm 0.00 in0.0 mm 0.00 in0.0 mm
09:19 AM 83.7°F28.7°C 75.3°F24.1°C 76% 2.0 mph 3.2 kmh 3.0 mph4.8 kmh 29.14 in986.8 mb 0.00 in0.0 mm 0.00 in0.0 mm 0.00 in0.0 mm
09:14 AM 83.1°F28.4°C 75.5°F24.2°C 78% Calm Calm 2.0 mph3.2 kmh 29.14 in986.8 mb 0.00 in0.0 mm 0.00 in0.0 mm 0.00 in0.0 mm
09:09 AM 82.0°F27.8°C 74.8°F23.8°C 79% 2.0 mph S3.2 kmh S 3.0 mph4.8 kmh 29.14 in986.8 mb 0.00 in0.0 mm 0.00 in0.0 mm 0.00 in0.0 mm
09:04 AM 81.1°F27.3°C 74.7°F23.7°C 81% 2.0 mph SSW3.2 kmh SSW 2.0 mph3.2 kmh 29.14 in986.8 mb 0.00 in0.0 mm 0.00 in0.0 mm 0.00 in0.0 mm
08:59 AM 80.2°F26.8°C 74.6°F23.7°C 83% 2.0 mph SE3.2 kmh SE 3.0 mph4.8 kmh 29.14 in986.8 mb 0.00 in0.0 mm 0.00 in0.0 mm 0.00 in0.0 mm
08:54 AM 80.1°F26.7°C 74.5°F23.6°C 83% Calm Calm 3.0 mph4.8 kmh 29.14 in986.8 mb 0.00 in0.0 mm 0.00 in0.0 mm 0.00 in0.0 mm
08:49 AM 79.3°F26.3°C 74.4°F23.6°C 85% 2.0 mph SSW3.2 kmh SSW 2.0 mph3.2 kmh 29.14 in986.8 mb 0.00 in0.0 mm 0.00 in0.0 mm 0.00 in0.0 mm
08:44 AM 79.2°F26.2°C 74.3°F23.5°C 85% 2.0 mph NE3.2 kmh NE 2.0 mph3.2 kmh 29.14 in986.8 mb 0.00 in0.0 mm 0.00 in0.0 mm 0.00 in0.0 mm
08:39 AM 78.8°F26.0°C 73.9°F23.3°C 85% Calm Calm 2.0 mph3.2 kmh 29.14 in986.8 mb 0.00 in0.0 mm 0.00 in0.0 mm 0.00 in0.0 mm
08:34 AM 78.8°F26.0°C 74.2°F23.4°C 86% 2.0 mph ENE3.2 kmh ENE 3.0 mph4.8 kmh 29.14 in986.8 mb 0.00 in0.0 mm 0.00 in0.0 mm 0.00 in0.0 mm
08:30 AM 78.8°F26.0°C 74.2°F23.4°C 86% Calm Calm 2.0 mph3.2 kmh 29.14 in986.8 mb 0.00 in0.0 mm 0.00 in0.0 mm 0.00 in0.0 mm
08:24 AM 78.6°F25.9°C 74.0°F23.3°C 86% Calm Calm 1.0 mph1.6 kmh 29.14 in986.8 mb 0.00 in0.0 mm 0.00 in0.0 mm 0.00 in0.0 mm
08:19 AM 78.3°F25.7°C 73.8°F23.2°C 86% 1.0 mph SSE1.6 kmh SSE 3.0 mph4.8 kmh 29.14 in986.8 mb 0.00 in0.0 mm 0.00 in0.0 mm 0.00 in0.0 mm
08:14 AM 78.1°F25.6°C 73.6°F23.1°C 86% Calm Calm 3.0 mph4.8 kmh 29.14 in986.8 mb 0.00 in0.0 mm 0.00 in0.0 mm 0.00 in0.0 mm
08:09 AM 78.1°F25.6°C 73.9°F23.3°C 87% 1.0 mph SE1.6 kmh SE 3.0 mph4.8 kmh 29.14 in986.8 mb 0.00 in0.0 mm 0.00 in0.0 mm 0.00 in0.0 mm
08:04 AM 78.1°F25.6°C 73.9°F23.3°C 87% Calm Calm 2.0 mph3.2 kmh 29.13 in986.5 mb 0.00 in0.0 mm 0.00 in0.0 mm 0.00 in0.0 mm
07:59 AM 77.9°F25.5°C 73.7°F23.2°C 87% 1.0 mph S1.6 kmh S 1.0 mph1.6 kmh 29.13 in986.5 mb 0.00 in0.0 mm 0.00 in0.0 mm 0.00 in0.0 mm
07:54 AM 77.7°F25.4°C 73.5°F23.1°C 87% 2.0 mph S3.2 kmh S 2.0 mph3.2 kmh 29.13 in986.5 mb 0.00 in0.0 mm 0.00 in0.0 mm 0.00 in0.0 mm
07:49 AM 77.5°F25.3°C 73.7°F23.2°C 88% Calm Calm -- 29.13 in986.5 mb 0.00 in0.0 mm 0.00 in0.0 mm 0.00 in0.0 mm
07:44 AM 77.2°F25.1°C 73.4°F23.0°C 88% 1.0 mph SSE1.6 kmh SSE 2.0 mph3.2 kmh 29.13 in986.5 mb 0.00 in0.0 mm 0.00 in0.0 mm 0.00 in0.0 mm
07:39 AM 77.0°F25.0°C 73.5°F23.1°C 89% Calm Calm -- 29.13 in986.5 mb 0.00 in0.0 mm 0.00 in0.0 mm 0.00 in0.0 mm
07:34 AM 76.6°F24.8°C 73.1°F22.8°C 89% Calm Calm 2.0 mph3.2 kmh 29.13 in986.5 mb 0.00 in0.0 mm 0.00 in0.0 mm 0.00 in0.0 mm
07:29 AM 76.5°F24.7°C 73.0°F22.8°C 89% Calm Calm -- 29.13 in986.5 mb 0.00 in0.0 mm 0.00 in0.0 mm 0.00 in0.0 mm
07:24 AM 76.3°F24.6°C 73.1°F22.8°C 90% Calm Calm -- 29.12 in986.1 mb 0.00 in0.0 mm 0.00 in0.0 mm 0.00 in0.0 mm
07:19 AM 76.1°F24.5°C 72.9°F22.7°C 90% 1.0 mph SW1.6 kmh SW 1.0 mph1.6 kmh 29.12 in986.1 mb 0.00 in0.0 mm 0.00 in0.0 mm 0.00 in0.0 mm
07:14 AM 75.9°F24.4°C 72.7°F22.6°C 90% Calm Calm 2.0 mph3.2 kmh 29.12 in986.1 mb 0.00 in0.0 mm 0.00 in0.0 mm 0.00 in0.0 mm
07:09 AM 75.7°F24.3°C 72.6°F22.6°C 90% Calm Calm -- 29.12 in986.1 mb 0.00 in0.0 mm 0.00 in0.0 mm 0.00 in0.0 mm
07:04 AM 75.7°F24.3°C 72.6°F22.6°C 90% Calm Calm -- 29.12 in986.1 mb 0.00 in0.0 mm 0.00 in0.0 mm 0.00 in0.0 mm
06:59 AM 75.7°F24.3°C 72.6°F22.6°C 90% Calm Calm -- 29.12 in986.1 mb 0.00 in0.0 mm 0.00 in0.0 mm 0.00 in0.0 mm
06:54 AM 75.7°F24.3°C 72.6°F22.6°C 90% Calm Calm -- 29.12 in986.1 mb 0.00 in0.0 mm 0.00 in0.0 mm 0.00 in0.0 mm
06:49 AM 75.9°F24.4°C 72.7°F22.6°C 90% Calm Calm -- 29.11 in985.8 mb 0.00 in0.0 mm 0.00 in0.0 mm 0.00 in0.0 mm
06:44 AM 75.9°F24.4°C 72.7°F22.6°C 90% Calm Calm -- 29.11 in985.8 mb 0.00 in0.0 mm 0.00 in0.0 mm 0.00 in0.0 mm
06:39 AM 76.1°F24.5°C 72.9°F22.7°C 90% Calm Calm -- 29.11 in985.8 mb 0.00 in0.0 mm 0.00 in0.0 mm 0.00 in0.0 mm
06:34 AM 76.1°F24.5°C 72.9°F22.7°C 90% Calm Calm -- 29.11 in985.8 mb 0.00 in0.0 mm 0.00 in0.0 mm 0.00 in0.0 mm
06:29 AM 76.3°F24.6°C 72.8°F22.7°C 89% Calm Calm -- 29.11 in985.8 mb 0.00 in0.0 mm 0.00 in0.0 mm 0.00 in0.0 mm
06:24 AM 76.3°F24.6°C 72.8°F22.7°C 89% Calm Calm -- 29.11 in985.8 mb 0.00 in0.0 mm 0.00 in0.0 mm 0.00 in0.0 mm
06:19 AM 76.5°F24.7°C 73.0°F22.8°C 89% Calm Calm 1.0 mph1.6 kmh 29.11 in985.8 mb 0.00 in0.0 mm 0.00 in0.0 mm 0.00 in0.0 mm
06:14 AM 76.6°F24.8°C 73.1°F22.8°C 89% Calm Calm -- 29.11 in985.8 mb 0.00 in0.0 mm 0.00 in0.0 mm 0.00 in0.0 mm
06:09 AM 76.6°F24.8°C 72.8°F22.7°C 88% 1.0 mph SSE1.6 kmh SSE 2.0 mph3.2 kmh 29.11 in985.8 mb 0.00 in0.0 mm 0.00 in0.0 mm 0.00 in0.0 mm
06:04 AM 76.8°F24.9°C 73.0°F22.8°C 88% Calm Calm -- 29.11 in985.8 mb 0.00 in0.0 mm 0.00 in0.0 mm 0.00 in0.0 mm
05:59 AM 77.0°F25.0°C 73.2°F22.9°C 88% Calm Calm -- 29.11 in985.8 mb 0.00 in0.0 mm 0.00 in0.0 mm 0.00 in0.0 mm
05:54 AM 77.0°F25.0°C 73.2°F22.9°C 88% Calm Calm -- 29.11 in985.8 mb 0.00 in0.0 mm 0.00 in0.0 mm 0.00 in0.0 mm
05:49 AM 77.2°F25.1°C 73.0°F22.8°C 87% Calm Calm -- 29.11 in985.8 mb 0.00 in0.0 mm 0.00 in0.0 mm 0.00 in0.0 mm
05:44 AM 77.4°F25.2°C 73.2°F22.9°C 87% 1.0 mph ENE1.6 kmh ENE 2.0 mph3.2 kmh 29.11 in985.8 mb 0.00 in0.0 mm 0.00 in0.0 mm 0.00 in0.0 mm
05:39 AM 77.4°F25.2°C 73.2°F22.9°C 87% 1.0 mph SSE1.6 kmh SSE 4.0 mph6.4 kmh 29.11 in985.8 mb 0.00 in0.0 mm 0.00 in0.0 mm 0.00 in0.0 mm
05:34 AM 77.5°F25.3°C 73.0°F22.8°C 86% Calm Calm 3.0 mph4.8 kmh 29.10 in985.4 mb 0.00 in0.0 mm 0.00 in0.0 mm 0.00 in0.0 mm
05:29 AM 77.7°F25.4°C 73.2°F22.9°C 86% 2.0 mph S3.2 kmh S 3.0 mph4.8 kmh 29.10 in985.4 mb 0.00 in0.0 mm 0.00 in0.0 mm 0.00 in0.0 mm
05:24 AM 77.7°F25.4°C 73.2°F22.9°C 86% 2.0 mph SSW3.2 kmh SSW 3.0 mph4.8 kmh 29.11 in985.8 mb 0.00 in0.0 mm 0.00 in0.0 mm 0.00 in0.0 mm
05:19 AM 77.7°F25.4°C 73.2°F22.9°C 86% 1.0 mph ESE1.6 kmh ESE 2.0 mph3.2 kmh 29.10 in985.4 mb 0.00 in0.0 mm 0.00 in0.0 mm 0.00 in0.0 mm
05:14 AM 77.7°F25.4°C 73.2°F22.9°C 86% Calm Calm 3.0 mph4.8 kmh 29.10 in985.4 mb 0.00 in0.0 mm 0.00 in0.0 mm 0.00 in0.0 mm
05:09 AM 77.7°F25.4°C 73.2°F22.9°C 86% 1.0 mph SE1.6 kmh SE 2.0 mph3.2 kmh 29.11 in985.8 mb 0.00 in0.0 mm 0.00 in0.0 mm 0.00 in0.0 mm
05:05 AM 77.9°F25.5°C 73.4°F23.0°C 86% Calm Calm -- 29.11 in985.8 mb 0.00 in0.0 mm 0.00 in0.0 mm 0.00 in0.0 mm
04:59 AM 77.9°F25.5°C 73.4°F23.0°C 86% Calm Calm -- 29.11 in985.8 mb 0.00 in0.0 mm 0.00 in0.0 mm 0.00 in0.0 mm
04:54 AM 78.1°F25.6°C 73.6°F23.1°C 86% Calm Calm 1.0 mph1.6 kmh 29.11 in985.8 mb 0.00 in0.0 mm 0.00 in0.0 mm 0.00 in0.0 mm
04:49 AM 78.1°F25.6°C 73.6°F23.1°C 86% 1.0 mph SSW1.6 kmh SSW 2.0 mph3.2 kmh 29.10 in985.4 mb 0.00 in0.0 mm 0.00 in0.0 mm 0.00 in0.0 mm
04:44 AM 78.3°F25.7°C 73.8°F23.2°C 86% 2.0 mph E3.2 kmh E 3.0 mph4.8 kmh 29.11 in985.8 mb 0.00 in0.0 mm 0.00 in0.0 mm 0.00 in0.0 mm
04:39 AM 78.3°F25.7°C 73.8°F23.2°C 86% Calm Calm -- 29.11 in985.8 mb 0.00 in0.0 mm 0.00 in0.0 mm 0.00 in0.0 mm
04:34 AM 78.4°F25.8°C 73.9°F23.3°C 86% Calm Calm -- 29.11 in985.8 mb 0.00 in0.0 mm 0.00 in0.0 mm 0.00 in0.0 mm
04:29 AM 78.6°F25.9°C 74.0°F23.3°C 86% Calm Calm -- 29.10 in985.4 mb 0.00 in0.0 mm 0.00 in0.0 mm 0.00 in0.0 mm
04:24 AM 78.6°F25.9°C 74.0°F23.3°C 86% 2.0 mph S3.2 kmh S 4.0 mph6.4 kmh 29.10 in985.4 mb 0.00 in0.0 mm 0.00 in0.0 mm 0.00 in0.0 mm
04:19 AM 78.8°F26.0°C 74.2°F23.4°C 86% 3.0 mph NNE4.8 kmh NNE 3.0 mph4.8 kmh 29.10 in985.4 mb 0.00 in0.0 mm 0.00 in0.0 mm 0.00 in0.0 mm
04:14 AM 78.8°F26.0°C 74.2°F23.4°C 86% 2.0 mph ESE3.2 kmh ESE 2.0 mph3.2 kmh 29.11 in985.8 mb 0.00 in0.0 mm 0.00 in0.0 mm 0.00 in0.0 mm
04:09 AM 79.0°F26.1°C 74.4°F23.6°C 86% 2.0 mph S3.2 kmh S 3.0 mph4.8 kmh 29.10 in985.4 mb 0.00 in0.0 mm 0.00 in0.0 mm 0.00 in0.0 mm
04:04 AM 79.0°F26.1°C 74.4°F23.6°C 86% Calm Calm 1.0 mph1.6 kmh 29.11 in985.8 mb 0.00 in0.0 mm 0.00 in0.0 mm 0.00 in0.0 mm
03:59 AM 79.2°F26.2°C 74.6°F23.7°C 86% 1.0 mph 1.6 kmh 2.0 mph3.2 kmh 29.11 in985.8 mb 0.00 in0.0 mm 0.00 in0.0 mm 0.00 in0.0 mm
03:54 AM 79.3°F26.3°C 74.7°F23.7°C 86% Calm Calm 7.0 mph11.3 kmh 29.11 in985.8 mb 0.00 in0.0 mm 0.00 in0.0 mm 0.00 in0.0 mm
03:49 AM 79.3°F26.3°C 74.7°F23.7°C 86% Calm Calm 1.0 mph1.6 kmh 29.11 in985.8 mb 0.00 in0.0 mm 0.00 in0.0 mm 0.00 in0.0 mm
03:44 AM 79.5°F26.4°C 74.9°F23.8°C 86% Calm Calm 1.0 mph1.6 kmh 29.11 in985.8 mb 0.00 in0.0 mm 0.00 in0.0 mm 0.00 in0.0 mm
03:39 AM 79.5°F26.4°C 74.9°F23.8°C 86% 2.0 mph SSE3.2 kmh SSE 2.0 mph3.2 kmh 29.11 in985.8 mb 0.00 in0.0 mm 0.00 in0.0 mm 0.00 in0.0 mm
03:34 AM 79.5°F26.4°C 74.9°F23.8°C 86% 1.0 mph S1.6 kmh S 2.0 mph3.2 kmh 29.12 in986.1 mb 0.00 in0.0 mm 0.00 in0.0 mm 0.00 in0.0 mm
03:29 AM 79.5°F26.4°C 74.9°F23.8°C 86% Calm Calm 2.0 mph3.2 kmh 29.11 in985.8 mb 0.00 in0.0 mm 0.00 in0.0 mm 0.00 in0.0 mm
03:24 AM 79.5°F26.4°C 74.9°F23.8°C 86% Calm Calm 1.0 mph1.6 kmh 29.12 in986.1 mb 0.00 in0.0 mm 0.00 in0.0 mm 0.00 in0.0 mm
03:19 AM 79.5°F26.4°C 74.9°F23.8°C 86% Calm Calm 3.0 mph4.8 kmh 29.11 in985.8 mb 0.00 in0.0 mm 0.00 in0.0 mm 0.00 in0.0 mm
03:14 AM 79.5°F26.4°C 74.9°F23.8°C 86% 2.0 mph SSE3.2 kmh SSE 4.0 mph6.4 kmh 29.11 in985.8 mb 0.00 in0.0 mm 0.00 in0.0 mm 0.00 in0.0 mm
03:09 AM 79.7°F26.5°C 75.1°F23.9°C 86% 2.0 mph SE3.2 kmh SE 2.0 mph3.2 kmh 29.11 in985.8 mb 0.00 in0.0 mm 0.00 in0.0 mm 0.00 in0.0 mm
03:04 AM 79.7°F26.5°C 75.1°F23.9°C 86% 2.0 mph SSE3.2 kmh SSE 3.0 mph4.8 kmh 29.11 in985.8 mb 0.00 in0.0 mm 0.00 in0.0 mm 0.00 in0.0 mm
02:59 AM 79.7°F26.5°C 74.8°F23.8°C 85% Calm Calm 3.0 mph4.8 kmh 29.11 in985.8 mb 0.00 in0.0 mm 0.00 in0.0 mm 0.00 in0.0 mm
02:54 AM 79.7°F26.5°C 74.8°F23.8°C 85% Calm Calm 6.0 mph9.7 kmh 29.12 in986.1 mb 0.00 in0.0 mm 0.00 in0.0 mm 0.00 in0.0 mm
02:49 AM 79.7°F26.5°C 74.8°F23.8°C 85% Calm Calm 3.0 mph4.8 kmh 29.12 in986.1 mb 0.00 in0.0 mm 0.00 in0.0 mm 0.00 in0.0 mm
02:44 AM 79.7°F26.5°C 74.8°F23.8°C 85% 2.0 mph SSE3.2 kmh SSE 4.0 mph6.4 kmh 29.12 in986.1 mb 0.00 in0.0 mm 0.00 in0.0 mm 0.00 in0.0 mm
02:39 AM 79.7°F26.5°C 74.8°F23.8°C 85% 2.0 mph SSW3.2 kmh SSW 3.0 mph4.8 kmh 29.12 in986.1 mb 0.00 in0.0 mm 0.00 in0.0 mm 0.00 in0.0 mm
02:34 AM 79.7°F26.5°C 74.8°F23.8°C 85% 2.0 mph S3.2 kmh S 2.0 mph3.2 kmh 29.12 in986.1 mb 0.00 in0.0 mm 0.00 in0.0 mm 0.00 in0.0 mm
02:29 AM 79.7°F26.5°C 74.8°F23.8°C 85% 2.0 mph S3.2 kmh S 3.0 mph4.8 kmh 29.12 in986.1 mb 0.00 in0.0 mm 0.00 in0.0 mm 0.00 in0.0 mm
02:24 AM 79.7°F26.5°C 74.8°F23.8°C 85% 2.0 mph ESE3.2 kmh ESE 5.0 mph8.0 kmh 29.12 in986.1 mb 0.00 in0.0 mm 0.00 in0.0 mm 0.00 in0.0 mm
02:19 AM 79.7°F26.5°C 74.8°F23.8°C 85% 2.0 mph SSE3.2 kmh SSE 4.0 mph6.4 kmh 29.12 in986.1 mb 0.00 in0.0 mm 0.00 in0.0 mm 0.00 in0.0 mm
02:14 AM 79.9°F26.6°C 75.0°F23.9°C 85% 1.0 mph SSE1.6 kmh SSE 3.0 mph4.8 kmh 29.12 in986.1 mb 0.00 in0.0 mm 0.00 in0.0 mm 0.00 in0.0 mm
02:09 AM 79.9°F26.6°C 75.0°F23.9°C 85% 3.0 mph S4.8 kmh S 4.0 mph6.4 kmh 29.12 in986.1 mb 0.00 in0.0 mm 0.00 in0.0 mm 0.00 in0.0 mm
02:04 AM 79.9°F26.6°C 75.0°F23.9°C 85% 3.0 mph SSE4.8 kmh SSE 3.0 mph4.8 kmh 29.12 in986.1 mb 0.00 in0.0 mm 0.00 in0.0 mm 0.00 in0.0 mm
01:59 AM 79.9°F26.6°C 75.0°F23.9°C 85% 3.0 mph SSE4.8 kmh SSE 3.0 mph4.8 kmh 29.12 in986.1 mb 0.00 in0.0 mm 0.00 in0.0 mm 0.00 in0.0 mm
01:54 AM 79.9°F26.6°C 75.0°F23.9°C 85% 2.0 mph SSE3.2 kmh SSE 3.0 mph4.8 kmh 29.12 in986.1 mb 0.00 in0.0 mm 0.00 in0.0 mm 0.00 in0.0 mm
01:49 AM 79.9°F26.6°C 74.6°F23.7°C 84% 2.0 mph SSE3.2 kmh SSE 3.0 mph4.8 kmh 29.12 in986.1 mb 0.00 in0.0 mm 0.00 in0.0 mm 0.00 in0.0 mm
01:44 AM 80.1°F26.7°C 74.8°F23.8°C 84% 2.0 mph W3.2 kmh W 2.0 mph3.2 kmh 29.12 in986.1 mb 0.00 in0.0 mm 0.00 in0.0 mm 0.00 in0.0 mm
01:39 AM 80.1°F26.7°C 74.8°F23.8°C 84% 4.0 mph S6.4 kmh S 4.0 mph6.4 kmh 29.12 in986.1 mb 0.00 in0.0 mm 0.00 in0.0 mm 0.00 in0.0 mm
01:34 AM 80.1°F26.7°C 74.8°F23.8°C 84% 2.0 mph SE3.2 kmh SE 4.0 mph6.4 kmh 29.12 in986.1 mb 0.00 in0.0 mm 0.00 in0.0 mm 0.00 in0.0 mm
01:29 AM 80.1°F26.7°C 74.5°F23.6°C 83% 5.0 mph SSW8.0 kmh SSW 5.0 mph8.0 kmh 29.12 in986.1 mb 0.00 in0.0 mm 0.00 in0.0 mm 0.00 in0.0 mm
01:24 AM 80.2°F26.8°C 74.6°F23.7°C 83% 2.0 mph S3.2 kmh S 4.0 mph6.4 kmh 29.12 in986.1 mb 0.00 in0.0 mm 0.00 in0.0 mm 0.00 in0.0 mm
01:19 AM 80.4°F26.9°C 74.7°F23.7°C 83% 2.0 mph S3.2 kmh S 4.0 mph6.4 kmh 29.12 in986.1 mb 0.00 in0.0 mm 0.00 in0.0 mm 0.00 in0.0 mm
01:14 AM 80.4°F26.9°C 74.7°F23.7°C 83% 1.0 mph SSW1.6 kmh SSW 3.0 mph4.8 kmh 29.12 in986.1 mb 0.00 in0.0 mm 0.00 in0.0 mm 0.00 in0.0 mm
01:09 AM 80.4°F26.9°C 74.7°F23.7°C 83% Calm Calm -- 29.13 in986.5 mb 0.00 in0.0 mm 0.00 in0.0 mm 0.00 in0.0 mm
01:04 AM 80.6°F27.0°C 74.9°F23.8°C 83% Calm Calm 1.0 mph1.6 kmh 29.12 in986.1 mb 0.00 in0.0 mm 0.00 in0.0 mm 0.00 in0.0 mm
12:59 AM 80.8°F27.1°C 75.1°F23.9°C 83% 1.0 mph SSE1.6 kmh SSE 3.0 mph4.8 kmh 29.13 in986.5 mb 0.00 in0.0 mm 0.00 in0.0 mm 0.00 in0.0 mm
12:54 AM 80.8°F27.1°C 74.8°F23.8°C 82% Calm Calm -- 29.12 in986.1 mb 0.00 in0.0 mm 0.00 in0.0 mm 0.00 in0.0 mm
12:49 AM 81.0°F27.2°C 75.0°F23.9°C 82% Calm Calm 2.0 mph3.2 kmh 29.12 in986.1 mb 0.00 in0.0 mm 0.00 in0.0 mm 0.00 in0.0 mm
12:44 AM 81.1°F27.3°C 75.1°F23.9°C 82% 1.0 mph SSE1.6 kmh SSE 2.0 mph3.2 kmh 29.12 in986.1 mb 0.00 in0.0 mm 0.00 in0.0 mm 0.00 in0.0 mm
12:39 AM 81.3°F27.4°C 74.9°F23.8°C 81% 1.0 mph S1.6 kmh S 3.0 mph4.8 kmh 29.12 in986.1 mb 0.00 in0.0 mm 0.00 in0.0 mm 0.00 in0.0 mm
12:34 AM 81.3°F27.4°C 74.9°F23.8°C 81% 3.0 mph S4.8 kmh S 3.0 mph4.8 kmh 29.13 in986.5 mb 0.00 in0.0 mm 0.00 in0.0 mm 0.00 in0.0 mm
12:29 AM 81.5°F27.5°C 74.7°F23.7°C 80% 1.0 mph S1.6 kmh S 3.0 mph4.8 kmh 29.13 in986.5 mb 0.00 in0.0 mm 0.00 in0.0 mm 0.00 in0.0 mm
12:24 AM 81.7°F27.6°C 74.5°F23.6°C 79% 1.0 mph ESE1.6 kmh ESE 2.0 mph3.2 kmh 29.13 in986.5 mb 0.00 in0.0 mm 0.00 in0.0 mm 0.00 in0.0 mm
12:19 AM 81.9°F27.7°C 74.7°F23.7°C 79% Calm Calm -- 29.12 in986.1 mb 0.00 in0.0 mm 0.00 in0.0 mm 0.00 in0.0 mm
12:14 AM 82.0°F27.8°C 74.4°F23.6°C 78% 2.0 mph SSE3.2 kmh SSE 2.0 mph3.2 kmh 29.12 in986.1 mb 0.00 in0.0 mm 0.00 in0.0 mm 0.00 in0.0 mm
12:09 AM 82.2°F27.9°C 74.6°F23.7°C 78% 3.0 mph SSE4.8 kmh SSE 5.0 mph8.0 kmh 29.12 in986.1 mb 0.00 in0.0 mm 0.00 in0.0 mm 0.00 in0.0 mm
12:04 AM 82.4°F28.0°C 74.8°F23.8°C 78% 3.0 mph E4.8 kmh E 5.0 mph8.0 kmh 29.12 in986.1 mb 0.00 in0.0 mm 0.00 in0.0 mm 0.00 in0.0 mm